Time,TemperatureF,DewpointF,PressureIn,WindDirection,WindDirectionDegrees,WindSpeedMPH,WindSpeedGustMPH,Humidity,HourlyPrecipIn,Conditions,Clouds,dailyrainin,SoftwareType,DateUTC
2013-02-13 00:11:00,34.0,19.0,-100.00,SW,234,1.0,3.0,52,-99.99,,,-99.99,,2013-02-13 08:11:00,
2013-02-13 00:21:00,34.0,19.0,-100.00,SW,234,1.0,3.0,52,-99.99,,,-99.99,,2013-02-13 08:21:00,
2013-02-13 00:31:00,34.0,18.0,-100.00,West,268,3.0,5.0,51,-99.99,,,-99.99,,2013-02-13 08:31:00,
2013-02-13 00:43:00,34.0,18.0,-100.00,West,268,3.0,5.0,51,-99.99,,,-99.99,,2013-02-13 08:43:00,
2013-02-13 00:52:00,34.0,19.0,-100.00,NW,308,1.0,2.0,52,-99.99,,,-99.99,,2013-02-13 08:52:00,
2013-02-13 01:01:00,34.0,19.0,-100.00,NW,308,1.0,2.0,52,-99.99,,,-99.99,,2013-02-13 09:01:00,
2013-02-13 01:11:00,34.0,18.0,-100.00,NNW,344,2.0,4.0,53,-99.99,,,-99.99,,2013-02-13 09:11:00,
2013-02-13 01:21:00,34.0,18.0,-100.00,NNW,344,2.0,4.0,53,-99.99,,,-99.99,,2013-02-13 09:21:00,
2013-02-13 01:31:00,34.0,18.0,-100.00,NW,313,1.0,2.0,51,-99.99,,,-99.99,,2013-02-13 09:31:00,
2013-02-13 01:41:00,34.0,18.0,-100.00,NW,313,1.0,2.0,51,-99.99,,,-99.99,,2013-02-13 09:41:00,
2013-02-13 01:52:00,33.0,18.0,-100.00,North,3,2.0,4.0,54,-99.99,,,-99.99,,2013-02-13 09:52:00,
2013-02-13 02:01:00,33.0,18.0,-100.00,North,3,2.0,4.0,54,-99.99,,,-99.99,,2013-02-13 10:01:00,
2013-02-13 02:11:00,32.0,18.0,-100.00,SW,232,2.0,3.0,55,-99.99,,,-99.99,,2013-02-13 10:11:00,
2013-02-13 02:21:00,32.0,18.0,-100.00,SW,232,2.0,3.0,55,-99.99,,,-99.99,,2013-02-13 10:21:00,
2013-02-13 02:32:00,34.0,18.0,-100.00,West,272,1.0,3.0,51,-99.99,,,-99.99,,2013-02-13 10:32:00,
2013-02-13 02:41:00,34.0,18.0,-100.00,West,272,1.0,3.0,51,-99.99,,,-99.99,,2013-02-13 10:41:00,
2013-02-13 03:11:00,32.0,18.0,-100.00,NW,312,0.0,1.0,55,-99.99,,,-99.99,,2013-02-13 11:11:00,
2013-02-13 03:22:00,32.0,18.0,-100.00,NW,312,0.0,1.0,55,-99.99,,,-99.99,,2013-02-13 11:22:00,
2013-02-13 03:32:00,32.0,18.0,-100.00,West,275,0.0,2.0,55,-99.99,,,-99.99,,2013-02-13 11:32:00,
2013-02-13 03:42:00,32.0,18.0,-100.00,West,275,0.0,2.0,55,-99.99,,,-99.99,,2013-02-13 11:42:00,
2013-02-13 03:52:00,31.0,18.0,-100.00,West,280,0.0,0.0,58,-99.99,,,-99.99,,2013-02-13 11:52:00,
2013-02-13 04:02:00,31.0,18.0,-100.00,West,280,0.0,0.0,58,-99.99,,,-99.99,,2013-02-13 12:02:00,
2013-02-13 04:52:00,31.0,18.0,-100.00,North,0,0.0,2.0,58,-99.99,,,-99.99,,2013-02-13 12:52:00,
2013-02-13 05:02:00,31.0,18.0,-100.00,North,0,0.0,2.0,58,-99.99,,,-99.99,,2013-02-13 13:02:00,
2013-02-13 05:11:00,31.0,18.0,-100.00,SSW,212,0.0,0.0,58,-99.99,,,-99.99,,2013-02-13 13:11:00,
2013-02-13 05:21:00,31.0,18.0,-100.00,SSW,212,0.0,0.0,58,-99.99,,,-99.99,,2013-02-13 13:21:00,
2013-02-13 05:31:00,31.0,18.0,-100.00,WSW,246,0.0,1.0,59,-99.99,,,-99.99,,2013-02-13 13:31:00,
2013-02-13 05:41:00,31.0,18.0,-100.00,WSW,246,0.0,1.0,59,-99.99,,,-99.99,,2013-02-13 13:41:00,
2013-02-13 05:52:00,30.0,18.0,-100.00,North,8,1.0,2.0,60,-99.99,,,-99.99,,2013-02-13 13:52:00,
2013-02-13 06:01:00,30.0,18.0,-100.00,North,8,1.0,2.0,60,-99.99,,,-99.99,,2013-02-13 14:01:00,
2013-02-13 06:11:00,32.0,18.0,-100.00,West,265,1.0,2.0,56,-99.99,,,-99.99,,2013-02-13 14:11:00,
2013-02-13 06:21:00,32.0,18.0,-100.00,West,265,1.0,2.0,56,-99.99,,,-99.99,,2013-02-13 14:21:00,
2013-02-13 06:42:00,29.0,18.0,-100.00,NNE,23,2.0,3.0,63,-99.99,,,-99.99,,2013-02-13 14:42:00,
2013-02-13 06:52:00,29.0,18.0,-100.00,NNE,23,2.0,3.0,63,-99.99,,,-99.99,,2013-02-13 14:52:00,
2013-02-13 07:01:00,29.0,18.0,-100.00,NNE,23,2.0,3.0,63,-99.99,,,-99.99,,2013-02-13 15:01:00,
2013-02-13 07:32:00,29.0,18.0,-100.00,North,10,0.0,0.0,62,-99.99,,,-99.99,,2013-02-13 15:32:00,
2013-02-13 07:42:00,29.0,18.0,-100.00,North,10,0.0,0.0,62,-99.99,,,-99.99,,2013-02-13 15:42:00,
2013-02-13 07:52:00,30.0,17.0,-100.00,North,354,0.0,2.0,59,-99.99,,,-99.99,,2013-02-13 15:52:00,
2013-02-13 08:01:00,30.0,17.0,-100.00,North,354,0.0,2.0,59,-99.99,,,-99.99,,2013-02-13 16:01:00,
2013-02-13 08:31:00,33.0,18.0,-100.00,ENE,64,3.0,5.0,54,-99.99,,,-99.99,,2013-02-13 16:31:00,
2013-02-13 08:52:00,34.0,18.0,-100.00,NE,42,1.0,4.0,52,-99.99,,,-99.99,,2013-02-13 16:52:00,
2013-02-13 09:01:00,34.0,18.0,-100.00,NE,42,1.0,4.0,52,-99.99,,,-99.99,,2013-02-13 17:01:00,
2013-02-13 09:11:00,35.0,18.0,-100.00,East,86,1.0,3.0,51,-99.99,,,-99.99,,2013-02-13 17:11:00,
2013-02-13 09:21:00,35.0,18.0,-100.00,East,86,1.0,3.0,51,-99.99,,,-99.99,,2013-02-13 17:21:00,
2013-02-13 09:31:00,35.0,19.0,-100.00,East,93,1.0,4.0,51,-99.99,,,-99.99,,2013-02-13 17:31:00,
2013-02-13 09:41:00,35.0,19.0,-100.00,East,93,1.0,4.0,51,-99.99,,,-99.99,,2013-02-13 17:41:00,
2013-02-13 09:52:00,37.0,19.0,-100.00,SE,143,2.0,4.0,48,-99.99,,,-99.99,,2013-02-13 17:52:00,
2013-02-13 10:01:00,37.0,19.0,-100.00,SE,143,2.0,4.0,48,-99.99,,,-99.99,,2013-02-13 18:01:00,
2013-02-13 10:11:00,38.0,19.0,-100.00,ESE,110,2.0,5.0,45,-99.99,,,-99.99,,2013-02-13 18:11:00,
2013-02-13 10:22:00,38.0,19.0,-100.00,ESE,110,2.0,5.0,45,-99.99,,,-99.99,,2013-02-13 18:22:00,
2013-02-13 10:32:00,38.0,19.0,-100.00,SE,141,3.0,6.0,45,-99.99,,,-99.99,,2013-02-13 18:32:00,
2013-02-13 10:41:00,38.0,19.0,-100.00,SE,141,3.0,6.0,45,-99.99,,,-99.99,,2013-02-13 18:41:00,
2013-02-13 10:52:00,39.0,19.0,-100.00,SE,141,2.0,7.0,44,-99.99,,,-99.99,,2013-02-13 18:52:00,
2013-02-13 11:01:00,40.0,20.0,-100.00,SSE,155,4.0,8.0,45,-99.99,,,-99.99,,2013-02-13 19:01:00,
2013-02-13 11:11:00,40.0,20.0,-100.00,SSE,155,4.0,8.0,45,-99.99,,,-99.99,,2013-02-13 19:11:00,
2013-02-13 11:21:00,42.0,20.0,-100.00,East,99,3.0,8.0,42,-99.99,,,-99.99,,2013-02-13 19:21:00,
2013-02-13 11:31:00,42.0,20.0,-100.00,East,99,3.0,8.0,42,-99.99,,,-99.99,,2013-02-13 19:31:00,
2013-02-13 11:41:00,40.0,20.0,-100.00,ENE,66,4.0,11.0,43,-99.99,,,-99.99,,2013-02-13 19:41:00,
2013-02-13 11:52:00,40.0,20.0,-100.00,ENE,66,4.0,11.0,43,-99.99,,,-99.99,,2013-02-13 19:52:00,
2013-02-13 12:02:00,42.0,19.0,-100.00,ENE,76,3.0,7.0,40,-99.99,,,-99.99,,2013-02-13 20:02:00,
2013-02-13 12:11:00,42.0,19.0,-100.00,ENE,76,3.0,7.0,40,-99.99,,,-99.99,,2013-02-13 20:11:00,
2013-02-13 12:21:00,43.0,19.0,-100.00,ENE,78,5.0,10.0,38,-99.99,,,-99.99,,2013-02-13 20:21:00,
2013-02-13 12:31:00,43.0,19.0,-100.00,ENE,78,5.0,10.0,38,-99.99,,,-99.99,,2013-02-13 20:31:00,
2013-02-13 12:41:00,44.0,20.0,-100.00,SE,134,4.0,9.0,37,-99.99,,,-99.99,,2013-02-13 20:41:00,
2013-02-13 12:52:00,44.0,20.0,-100.00,SE,134,4.0,9.0,37,-99.99,,,-99.99,,2013-02-13 20:52:00,
2013-02-13 13:01:00,45.0,20.0,-100.00,East,79,5.0,11.0,37,-99.99,,,-99.99,,2013-02-13 21:01:00,
2013-02-13 13:11:00,45.0,20.0,-100.00,East,79,5.0,11.0,37,-99.99,,,-99.99,,2013-02-13 21:11:00,
2013-02-13 13:21:00,45.0,22.0,-100.00,East,80,6.0,12.0,40,-99.99,,,-99.99,,2013-02-13 21:21:00,
2013-02-13 13:31:00,45.0,22.0,-100.00,East,80,6.0,12.0,40,-99.99,,,-99.99,,2013-02-13 21:31:00,
2013-02-13 13:42:00,46.0,21.0,-100.00,SE,124,5.0,11.0,36,-99.99,,,-99.99,,2013-02-13 21:42:00,
2013-02-13 13:52:00,46.0,21.0,-100.00,SE,124,5.0,11.0,36,-99.99,,,-99.99,,2013-02-13 21:52:00,
2013-02-13 14:02:00,47.0,22.0,-100.00,ESE,123,7.0,16.0,37,-99.99,,,-99.99,,2013-02-13 22:02:00,
2013-02-13 14:11:00,47.0,22.0,-100.00,ESE,123,7.0,16.0,37,-99.99,,,-99.99,,2013-02-13 22:11:00,
2013-02-13 14:21:00,47.0,19.0,-100.00,NE,51,4.0,11.0,33,-99.99,,,-99.99,,2013-02-13 22:21:00,
2013-02-13 14:31:00,47.0,19.0,-100.00,NE,51,4.0,11.0,33,-99.99,,,-99.99,,2013-02-13 22:31:00,
2013-02-13 14:42:00,49.0,21.0,-100.00,East,83,3.0,7.0,32,-99.99,,,-99.99,,2013-02-13 22:42:00,
2013-02-13 14:52:00,49.0,21.0,-100.00,East,83,3.0,7.0,32,-99.99,,,-99.99,,2013-02-13 22:52:00,
2013-02-13 15:01:00,47.0,20.0,-100.00,ENE,58,6.0,12.0,33,-99.99,,,-99.99,,2013-02-13 23:01:00,
2013-02-13 15:11:00,47.0,20.0,-100.00,ENE,58,6.0,12.0,33,-99.99,,,-99.99,,2013-02-13 23:11:00,
2013-02-13 15:21:00,47.0,20.0,-100.00,ENE,58,6.0,12.0,33,-99.99,,,-99.99,,2013-02-13 23:21:00,
2013-02-13 15:42:00,48.0,20.0,-100.00,NE,44,6.0,11.0,33,-99.99,,,-99.99,,2013-02-13 23:42:00,
2013-02-13 15:52:00,48.0,20.0,-100.00,NE,44,6.0,11.0,33,-99.99,,,-99.99,,2013-02-13 23:52:00,
2013-02-13 16:01:00,48.0,20.0,-100.00,NE,44,6.0,11.0,33,-99.99,,,-99.99,,2013-02-14 00:01:00,
2013-02-13 16:21:00,47.0,21.0,-100.00,NNE,31,5.0,13.0,35,-99.99,,,-99.99,,2013-02-14 00:21:00,
2013-02-13 16:32:00,47.0,21.0,-100.00,NNE,31,5.0,13.0,35,-99.99,,,-99.99,,2013-02-14 00:32:00,
2013-02-13 16:42:00,48.0,20.0,-100.00,NE,34,3.0,8.0,33,-99.99,,,-99.99,,2013-02-14 00:42:00,
2013-02-13 16:52:00,47.0,21.0,-100.00,North,7,6.0,9.0,36,-99.99,,,-99.99,,2013-02-14 00:52:00,
2013-02-13 17:01:00,47.0,21.0,-100.00,North,7,6.0,9.0,36,-99.99,,,-99.99,,2013-02-14 01:01:00,
2013-02-13 17:11:00,47.0,21.0,-100.00,North,7,6.0,9.0,36,-99.99,,,-99.99,,2013-02-14 01:11:00,
2013-02-13 17:21:00,47.0,21.0,-100.00,North,7,6.0,9.0,36,-99.99,,,-99.99,,2013-02-14 01:21:00,
2013-02-13 17:42:00,44.0,21.0,-100.00,North,7,6.0,10.0,40,-99.99,,,-99.99,,2013-02-14 01:42:00,
2013-02-13 17:51:00,44.0,21.0,-100.00,North,7,6.0,10.0,40,-99.99,,,-99.99,,2013-02-14 01:51:00,
2013-02-13 18:01:00,42.0,21.0,-100.00,North,8,5.0,11.0,43,-99.99,,,-99.99,,2013-02-14 02:01:00,
2013-02-13 18:11:00,42.0,21.0,-100.00,North,8,5.0,11.0,43,-99.99,,,-99.99,,2013-02-14 02:11:00,
2013-02-13 18:21:00,42.0,21.0,-100.00,NNE,18,6.0,12.0,44,-99.99,,,-99.99,,2013-02-14 02:21:00,
2013-02-13 18:31:00,42.0,21.0,-100.00,NNE,18,6.0,12.0,44,-99.99,,,-99.99,,2013-02-14 02:31:00,
2013-02-13 18:41:00,42.0,21.0,-100.00,NNE,18,6.0,12.0,44,-99.99,,,-99.99,,2013-02-14 02:41:00,
2013-02-13 19:02:00,41.0,22.0,-100.00,North,8,8.0,12.0,45,-99.99,,,-99.99,,2013-02-14 03:02:00,
2013-02-13 20:01:00,38.0,21.0,-100.00,ENE,72,1.0,2.0,50,-99.99,,,-99.99,,2013-02-14 04:01:00,
2013-02-13 20:11:00,38.0,21.0,-100.00,ENE,72,1.0,2.0,50,-99.99,,,-99.99,,2013-02-14 04:11:00,
2013-02-13 20:21:00,38.0,21.0,-100.00,WNW,285,1.0,2.0,49,-99.99,,,-99.99,,2013-02-14 04:21:00,
2013-02-13 20:31:00,38.0,21.0,-100.00,WNW,285,1.0,2.0,49,-99.99,,,-99.99,,2013-02-14 04:31:00,
2013-02-13 20:41:00,39.0,21.0,-100.00,NNE,32,3.0,7.0,49,-99.99,,,-99.99,,2013-02-14 04:41:00,
2013-02-13 20:52:00,39.0,21.0,-100.00,NNE,32,3.0,7.0,49,-99.99,,,-99.99,,2013-02-14 04:52:00,
2013-02-13 21:01:00,39.0,21.0,-100.00,West,277,2.0,6.0,49,-99.99,,,-99.99,,2013-02-14 05:01:00,
2013-02-13 21:11:00,39.0,21.0,-100.00,West,277,2.0,6.0,49,-99.99,,,-99.99,,2013-02-14 05:11:00,
2013-02-13 21:21:00,38.0,21.0,-100.00,WNW,298,0.0,2.0,50,-99.99,,,-99.99,,2013-02-14 05:21:00,
2013-02-13 21:31:00,38.0,21.0,-100.00,WNW,298,0.0,2.0,50,-99.99,,,-99.99,,2013-02-14 05:31:00,
2013-02-13 21:41:00,38.0,21.0,-100.00,WNW,298,0.0,2.0,50,-99.99,,,-99.99,,2013-02-14 05:41:00,
2013-02-13 22:02:00,38.0,21.0,-100.00,North,357,2.0,4.0,51,-99.99,,,-99.99,,2013-02-14 06:02:00,
2013-02-13 22:11:00,38.0,21.0,-100.00,North,357,2.0,4.0,51,-99.99,,,-99.99,,2013-02-14 06:11:00,
2013-02-13 22:21:00,38.0,21.0,-100.00,North,357,2.0,4.0,51,-99.99,,,-99.99,,2013-02-14 06:21:00,
2013-02-13 22:42:00,37.0,22.0,-100.00,North,349,3.0,5.0,54,-99.99,,,-99.99,,2013-02-14 06:42:00,
2013-02-13 22:52:00,37.0,22.0,-100.00,North,349,3.0,5.0,54,-99.99,,,-99.99,,2013-02-14 06:52:00,
2013-02-13 23:01:00,37.0,22.0,-100.00,North,349,3.0,5.0,54,-99.99,,,-99.99,,2013-02-14 07:01:00,
2013-02-13 23:21:00,36.0,21.0,-100.00,WSW,256,0.0,2.0,52,-99.99,,,-99.99,,2013-02-14 07:21:00,
2013-02-13 23:31:00,36.0,21.0,-100.00,WSW,256,0.0,2.0,52,-99.99,,,-99.99,,2013-02-14 07:31:00,
2013-02-13 23:41:00,36.0,21.0,-100.00,NNE,17,1.0,2.0,52,-99.99,,,-99.99,,2013-02-14 07:41:00,
2013-02-13 23:52:00,36.0,21.0,-100.00,NNE,17,1.0,2.0,52,-99.99,,,-99.99,,2013-02-14 07:52:00,